createdAt,value
2019-03-29T00:01:09.901Z,17.33
2019-03-29T00:03:40.830Z,17.77
2019-03-29T00:06:11.973Z,20.17
2019-03-29T00:08:42.913Z,19.03
2019-03-29T00:11:13.931Z,19.20
2019-03-29T00:13:44.993Z,19.70
2019-03-29T00:16:15.934Z,21.70
2019-03-29T00:18:46.907Z,20.07
2019-03-29T00:21:17.890Z,19.93
2019-03-29T00:23:49.142Z,21.17
2019-03-29T00:26:20.202Z,19.77
2019-03-29T00:28:51.226Z,20.70
2019-03-29T00:31:22.194Z,18.97
2019-03-29T00:33:53.129Z,21.27
2019-03-29T00:36:24.069Z,18.43
2019-03-29T00:38:55.076Z,20.03
2019-03-29T00:41:25.938Z,21.03
2019-03-29T00:43:56.880Z,20.43
2019-03-29T00:46:28.030Z,21.87
2019-03-29T00:48:59.113Z,24.50
2019-03-29T00:51:30.113Z,21.97
2019-03-29T00:54:01.937Z,21.13
2019-03-29T00:56:33.222Z,23.53
2019-03-29T00:59:04.149Z,21.63
2019-03-29T01:01:35.159Z,25.80
2019-03-29T01:04:06.139Z,22.90
2019-03-29T01:06:37.381Z,22.93
2019-03-29T01:09:08.940Z,22.73
2019-03-29T01:11:40.903Z,22.83
2019-03-29T01:14:11.944Z,23.57
2019-03-29T01:16:42.873Z,23.60
2019-03-29T01:19:13.810Z,22.53
2019-03-29T01:21:44.919Z,22.63
2019-03-29T01:24:15.982Z,23.13
2019-03-29T01:26:47.137Z,22.27
2019-03-29T01:29:18.145Z,20.47
2019-03-29T01:31:49.118Z,21.80
2019-03-29T01:34:20.183Z,20.40
2019-03-29T01:36:51.102Z,22.43
2019-03-29T01:39:21.936Z,22.77
2019-03-29T01:41:53.096Z,22.93
2019-03-29T01:44:24.237Z,22.87
2019-03-29T01:46:55.192Z,22.43
2019-03-29T01:49:26.179Z,22.87
2019-03-29T01:51:57.211Z,22.53
2019-03-29T01:54:28.082Z,23.40
2019-03-29T01:56:59.033Z,22.93
2019-03-29T01:59:30.030Z,21.70
2019-03-29T02:02:01.010Z,23.07
2019-03-29T02:04:31.958Z,24.30
2019-03-29T02:07:02.980Z,23.03
2019-03-29T02:09:34.002Z,21.90
2019-03-29T02:12:04.974Z,23.23
2019-03-29T02:14:35.903Z,25.07
2019-03-29T02:17:06.839Z,24.47
2019-03-29T02:19:37.789Z,25.17
2019-03-29T02:22:09.072Z,25.20
2019-03-29T02:24:40.203Z,25.07
2019-03-29T02:27:11.111Z,25.13
2019-03-29T02:29:42.124Z,25.13
2019-03-29T02:32:13.103Z,25.63
2019-03-29T02:34:44.253Z,25.87
2019-03-29T02:37:15.351Z,25.07
2019-03-29T02:39:46.223Z,25.40
2019-03-29T02:42:17.151Z,25.53
2019-03-29T02:44:48.109Z,24.33
2019-03-29T02:47:19.063Z,25.17
2019-03-29T02:49:50.047Z,25.43
2019-03-29T02:52:21.020Z,24.37
2019-03-29T02:54:52.018Z,25.33
2019-03-29T02:57:22.891Z,24.77
2019-03-29T02:59:53.903Z,25.07
2019-03-29T03:02:26.611Z,24.57
2019-03-29T03:04:57.450Z,21.97
2019-03-29T03:07:28.867Z,23.67
2019-03-29T03:09:59.735Z,23.47
2019-03-29T03:12:30.714Z,24.03
2019-03-29T03:15:01.829Z,21.97
2019-03-29T03:17:32.830Z,22.47
2019-03-29T03:20:03.708Z,21.33
2019-03-29T03:22:34.632Z,23.63
2019-03-29T03:25:06.000Z,23.37
2019-03-29T03:27:37.174Z,21.93
2019-03-29T03:30:09.556Z,22.37
2019-03-29T03:32:40.557Z,24.53
2019-03-29T03:35:12.487Z,23.03
2019-03-29T03:37:43.446Z,24.77
2019-03-29T03:40:14.794Z,24.07
2019-03-29T03:42:45.740Z,23.17
2019-03-29T03:45:16.855Z,22.23
2019-03-29T03:47:47.781Z,25.40
2019-03-29T03:50:46.295Z,24.73
2019-03-29T03:53:17.249Z,23.20
2019-03-29T03:55:48.393Z,24.33
2019-03-29T03:58:21.043Z,25.90
2019-03-29T04:00:55.087Z,26.87
2019-03-29T04:03:26.742Z,26.13
2019-03-29T04:05:58.208Z,27.57
2019-03-29T04:08:29.527Z,28.00
2019-03-29T04:11:00.680Z,29.23
2019-03-29T04:13:31.607Z,28.53
2019-03-29T04:16:02.562Z,27.90
2019-03-29T04:18:33.568Z,26.13
2019-03-29T04:21:04.454Z,25.03
2019-03-29T04:23:35.571Z,28.70
2019-03-29T04:26:06.524Z,26.23
2019-03-29T04:28:37.522Z,28.03
2019-03-29T04:31:08.424Z,26.23
2019-03-29T04:33:39.443Z,25.60
2019-03-29T04:36:10.381Z,26.50
2019-03-29T04:38:41.202Z,24.40
2019-03-29T04:41:12.218Z,24.97
2019-03-29T04:43:43.181Z,25.03
2019-03-29T04:46:14.152Z,27.67
2019-03-29T04:48:45.064Z,23.63
2019-03-29T04:51:15.907Z,23.33
2019-03-29T04:53:46.914Z,23.97
2019-03-29T04:56:17.777Z,25.17
2019-03-29T04:58:48.730Z,24.83
2019-03-29T05:01:19.930Z,24.70
2019-03-29T05:03:50.874Z,24.57
2019-03-29T05:06:21.745Z,22.87
2019-03-29T05:08:52.686Z,23.80
2019-03-29T05:11:23.614Z,23.93
2019-03-29T05:13:54.461Z,24.07
2019-03-29T05:16:25.466Z,24.60
2019-03-29T05:18:56.330Z,25.47
2019-03-29T05:21:27.270Z,24.07
2019-03-29T05:23:58.422Z,24.67
2019-03-29T05:26:29.430Z,25.60
2019-03-29T05:29:00.301Z,27.63
2019-03-29T05:31:31.229Z,28.33
2019-03-29T05:34:02.384Z,26.03
2019-03-29T05:36:33.387Z,29.30
2019-03-29T05:39:04.825Z,27.13
2019-03-29T05:41:35.804Z,29.93
2019-03-29T05:44:06.821Z,28.77
2019-03-29T05:46:37.836Z,28.17
2019-03-29T05:49:08.868Z,27.37
2019-03-29T05:51:39.881Z,27.10
2019-03-29T05:54:10.881Z,26.67
2019-03-29T05:56:41.761Z,27.23
2019-03-29T05:59:12.684Z,26.10
2019-03-29T06:01:43.628Z,24.53
2019-03-29T06:04:14.461Z,24.77
2019-03-29T06:06:45.526Z,24.30
2019-03-29T06:09:16.617Z,24.77
2019-03-29T06:11:47.801Z,25.43
2019-03-29T06:14:18.794Z,27.33
2019-03-29T06:16:49.678Z,27.27
2019-03-29T06:19:20.722Z,26.87
2019-03-29T06:21:51.648Z,27.53
2019-03-29T06:24:22.595Z,27.83
2019-03-29T06:26:53.597Z,28.07
2019-03-29T06:29:24.466Z,29.33
2019-03-29T06:31:55.401Z,29.23
2019-03-29T06:34:26.342Z,31.63
2019-03-29T06:36:58.998Z,29.03
2019-03-29T06:39:30.805Z,29.40
2019-03-29T06:42:02.026Z,28.00
2019-03-29T06:44:32.966Z,30.10
2019-03-29T06:47:03.915Z,29.97
2019-03-29T06:49:35.022Z,28.90
2019-03-29T06:52:05.984Z,31.73
2019-03-29T06:54:36.935Z,31.73
2019-03-29T06:57:07.870Z,31.47
2019-03-29T06:59:38.802Z,33.17
2019-03-29T07:02:09.814Z,29.30
2019-03-29T07:04:40.682Z,25.70
2019-03-29T07:07:11.625Z,21.97
2019-03-29T07:09:42.613Z,21.77
2019-03-29T07:12:13.712Z,19.10
2019-03-29T07:14:44.642Z,19.67
2019-03-29T07:17:15.702Z,20.07
2019-03-29T07:19:46.627Z,18.83
2019-03-29T07:22:18.533Z,18.53
2019-03-29T07:24:49.702Z,18.23
2019-03-29T07:27:20.642Z,19.23
2019-03-29T07:29:51.515Z,19.17
2019-03-29T07:32:22.762Z,18.37
2019-03-29T07:34:53.770Z,18.43
2019-03-29T07:37:24.730Z,18.87
2019-03-29T07:39:55.783Z,18.60
2019-03-29T07:42:26.740Z,17.00
2019-03-29T07:44:57.724Z,19.60
2019-03-29T07:47:28.601Z,18.30
2019-03-29T07:49:59.565Z,20.10
2019-03-29T07:52:31.098Z,20.13
2019-03-29T07:55:02.033Z,18.53
2019-03-29T07:57:32.963Z,20.37
2019-03-29T08:00:04.105Z,21.63
2019-03-29T08:02:35.213Z,22.67
2019-03-29T08:05:06.302Z,22.30
2019-03-29T08:07:37.228Z,22.20
2019-03-29T08:10:08.280Z,22.00
2019-03-29T08:12:40.695Z,21.53
2019-03-29T08:15:11.797Z,22.20
2019-03-29T08:17:42.727Z,22.57
2019-03-29T08:20:38.255Z,24.07
2019-03-29T08:22:46.355Z,23.43
2019-03-29T08:25:17.386Z,24.27
2019-03-29T08:27:48.335Z,23.13
2019-03-29T08:30:19.392Z,23.60
2019-03-29T08:32:50.521Z,22.60
2019-03-29T08:35:21.458Z,23.37
2019-03-29T08:37:52.466Z,25.05
2019-03-29T08:40:23.336Z,23.45
2019-03-29T08:42:54.266Z,24.82
2019-03-29T08:45:25.244Z,23.77
2019-03-29T08:47:56.153Z,22.00
2019-03-29T08:50:27.163Z,23.32
2019-03-29T08:52:58.122Z,23.77
2019-03-29T08:55:29.063Z,25.27
2019-03-29T08:58:00.002Z,25.75
2019-03-29T09:00:34.442Z,24.80
2019-03-29T09:03:05.983Z,25.60
2019-03-29T09:05:39.298Z,25.72
2019-03-29T09:08:10.309Z,25.02
2019-03-29T09:10:41.330Z,26.23
2019-03-29T09:13:12.610Z,25.08
2019-03-29T09:15:43.582Z,25.75
2019-03-29T09:18:14.553Z,25.25
2019-03-29T09:20:45.425Z,25.10
2019-03-29T09:23:16.364Z,26.10
2019-03-29T09:25:47.407Z,23.80
2019-03-29T09:28:18.346Z,24.87
2019-03-29T09:30:49.352Z,25.55
2019-03-29T09:33:20.326Z,26.12
2019-03-29T09:35:51.368Z,26.50
2019-03-29T09:38:22.300Z,26.70
2019-03-29T09:40:58.881Z,26.00
2019-03-29T09:43:26.796Z,26.27
2019-03-29T09:45:57.879Z,30.08
2019-03-29T09:48:28.870Z,26.27
2019-03-29T09:51:00.073Z,26.50
2019-03-29T09:53:31.225Z,24.92
2019-03-29T09:56:02.250Z,25.35
2019-03-29T09:58:33.197Z,26.55
2019-03-29T10:01:04.238Z,22.85
2019-03-29T10:03:36.201Z,28.25
2019-03-29T10:06:07.143Z,27.52
2019-03-29T10:08:38.761Z,24.95
2019-03-29T10:11:09.621Z,27.10
2019-03-29T10:13:40.640Z,25.90
2019-03-29T10:16:11.502Z,26.23
2019-03-29T10:18:42.494Z,29.50
2019-03-29T10:21:16.889Z,26.62
2019-03-29T10:23:46.029Z,28.40
2019-03-29T10:26:16.910Z,28.30
2019-03-29T10:28:47.845Z,25.88
2019-03-29T10:31:31.501Z,26.90
2019-03-29T10:33:51.631Z,25.97
2019-03-29T10:36:22.504Z,28.00
2019-03-29T10:38:53.465Z,28.52
2019-03-29T10:41:26.492Z,28.02
2019-03-29T10:43:57.357Z,27.77
2019-03-29T10:46:28.297Z,28.57
2019-03-29T10:48:59.237Z,26.77
2019-03-29T10:51:30.210Z,27.42
2019-03-29T10:54:01.193Z,24.55
2019-03-29T10:56:34.435Z,27.13
2019-03-29T10:59:04.733Z,26.33
2019-03-29T11:01:35.775Z,28.02
2019-03-29T11:04:06.785Z,25.12
2019-03-29T11:06:37.767Z,27.60
2019-03-29T11:09:09.734Z,26.82
2019-03-29T11:11:45.694Z,25.15
2019-03-29T11:14:18.479Z,25.97
2019-03-29T11:16:49.406Z,26.90
2019-03-29T11:19:20.347Z,26.73
2019-03-29T11:21:51.345Z,25.45
2019-03-29T11:24:22.290Z,28.07
2019-03-29T11:26:53.164Z,28.15
2019-03-29T11:29:24.309Z,28.70
2019-03-29T11:31:56.257Z,28.50
2019-03-29T11:34:27.198Z,27.55
2019-03-29T11:36:58.137Z,28.80
2019-03-29T11:39:29.084Z,25.68
2019-03-29T11:42:03.374Z,27.58
2019-03-29T11:44:32.599Z,29.10
2019-03-29T11:47:03.528Z,29.95
2019-03-29T11:49:34.479Z,30.92
2019-03-29T11:52:05.631Z,29.52
2019-03-29T11:54:36.665Z,32.50
2019-03-29T11:57:07.603Z,31.17
2019-03-29T11:59:40.154Z,32.40
2019-03-29T12:02:30.294Z,31.15
2019-03-29T12:04:49.521Z,29.23
2019-03-29T12:07:20.681Z,29.25
2019-03-29T12:09:51.680Z,29.60
2019-03-29T12:12:34.807Z,30.60
2019-03-29T12:15:06.588Z,32.48
2019-03-29T12:17:37.601Z,30.40
2019-03-29T12:20:08.980Z,28.85
2019-03-29T12:22:39.817Z,26.97
2019-03-29T12:25:12.449Z,29.65
2019-03-29T12:27:43.346Z,31.10
2019-03-29T12:30:30.473Z,30.27
2019-03-29T12:32:47.372Z,24.87
2019-03-29T12:35:18.301Z,29.37
2019-03-29T12:37:49.309Z,30.32
2019-03-29T12:40:20.428Z,27.98
2019-03-29T12:42:51.428Z,30.17
2019-03-29T12:45:23.453Z,29.72
2019-03-29T12:47:54.338Z,27.87
2019-03-29T12:50:25.294Z,32.00
2019-03-29T12:52:56.334Z,30.68
2019-03-29T12:55:28.645Z,29.92
2019-03-29T12:57:59.513Z,27.50
2019-03-29T13:00:30.733Z,29.87
2019-03-29T13:03:01.705Z,28.47
2019-03-29T13:05:32.650Z,28.15
2019-03-29T13:08:03.733Z,29.65
2019-03-29T13:10:35.030Z,30.00
2019-03-29T13:13:06.173Z,28.25
2019-03-29T13:15:37.316Z,30.85
2019-03-29T13:18:08.258Z,31.60
2019-03-29T13:20:39.270Z,31.20
2019-03-29T13:23:10.238Z,31.17
2019-03-29T13:25:41.394Z,30.17
2019-03-29T13:28:12.539Z,32.30
2019-03-29T13:30:43.464Z,31.82
2019-03-29T13:33:14.414Z,28.85
2019-03-29T13:35:45.363Z,27.55
2019-03-29T13:38:16.456Z,30.45
2019-03-29T13:40:47.321Z,31.70
2019-03-29T13:43:18.271Z,31.45
2019-03-29T13:45:49.418Z,32.53
2019-03-29T13:48:20.423Z,34.65
2019-03-29T13:50:51.203Z,32.85
2019-03-29T13:53:22.300Z,32.38
2019-03-29T13:55:54.796Z,32.30
2019-03-29T13:58:25.784Z,32.73
2019-03-29T14:00:56.776Z,30.45
2019-03-29T14:03:27.718Z,31.33
2019-03-29T14:05:58.657Z,32.60
2019-03-29T14:08:29.594Z,30.15
2019-03-29T14:11:00.702Z,31.05
2019-03-29T14:13:31.677Z,34.10
2019-03-29T14:16:02.858Z,32.75
2019-03-29T14:18:36.836Z,30.08
2019-03-29T14:21:07.846Z,32.00
2019-03-29T14:23:38.810Z,32.17
2019-03-29T14:26:09.970Z,33.10
2019-03-29T14:28:40.971Z,32.13
2019-03-29T14:31:11.895Z,30.37
2019-03-29T14:33:42.774Z,32.28
2019-03-29T14:36:13.713Z,32.42
2019-03-29T14:38:44.549Z,31.27
2019-03-29T14:41:15.560Z,32.90
2019-03-29T14:43:46.427Z,33.58
2019-03-29T14:46:17.441Z,32.78
2019-03-29T14:48:48.407Z,34.63
2019-03-29T14:51:19.417Z,33.98
2019-03-29T14:53:50.467Z,34.00
2019-03-29T14:56:21.327Z,36.33
2019-03-29T14:58:52.265Z,34.33
2019-03-29T15:01:23.425Z,35.45
2019-03-29T15:03:54.667Z,33.73
2019-03-29T15:06:25.592Z,33.38
2019-03-29T15:08:56.809Z,31.55
2019-03-29T15:11:27.782Z,33.67
2019-03-29T15:13:58.937Z,33.50
2019-03-29T15:16:29.938Z,33.00
2019-03-29T15:19:00.802Z,33.95
2019-03-29T15:21:31.759Z,29.92
2019-03-29T15:24:02.896Z,33.48
2019-03-29T15:26:33.893Z,32.50
2019-03-29T15:29:04.887Z,33.33
2019-03-29T15:31:35.806Z,32.98
2019-03-29T15:34:07.077Z,33.48
2019-03-29T15:36:37.989Z,33.78
2019-03-29T15:39:10.066Z,33.33
2019-03-29T15:41:41.065Z,33.83
2019-03-29T15:44:12.238Z,33.08
2019-03-29T15:46:43.176Z,35.25
2019-03-29T15:49:14.024Z,35.08
2019-03-29T15:51:45.018Z,33.15
2019-03-29T15:54:15.917Z,32.58
2019-03-29T15:56:46.976Z,34.55
2019-03-29T15:59:17.973Z,34.27
2019-03-29T16:01:49.118Z,31.77
2019-03-29T16:04:20.113Z,33.55
2019-03-29T16:06:50.997Z,33.70
2019-03-29T16:09:21.937Z,34.20
2019-03-29T16:11:52.952Z,32.88
2019-03-29T16:14:23.802Z,34.30
2019-03-29T16:16:54.754Z,31.05
2019-03-29T16:19:25.548Z,31.40
2019-03-29T16:21:56.529Z,31.23
2019-03-29T16:24:27.541Z,31.95
2019-03-29T16:26:58.416Z,34.00
2019-03-29T16:29:29.344Z,31.62
2019-03-29T16:32:00.285Z,33.38
2019-03-29T16:34:31.221Z,32.70
2019-03-29T16:37:02.289Z,31.40
2019-03-29T16:39:33.205Z,32.73
2019-03-29T16:42:04.152Z,33.15
2019-03-29T16:44:35.135Z,32.35
2019-03-29T16:47:06.242Z,32.08
2019-03-29T16:49:37.160Z,33.55
2019-03-29T16:52:08.201Z,28.98
2019-03-29T16:54:39.466Z,32.00
2019-03-29T16:57:10.459Z,30.00
2019-03-29T16:59:41.328Z,31.37
2019-03-29T17:02:12.269Z,31.77
2019-03-29T17:04:43.210Z,29.72
2019-03-29T17:07:14.098Z,30.57
2019-03-29T17:09:45.049Z,32.75
2019-03-29T17:12:16.025Z,30.82
2019-03-29T17:14:46.976Z,30.17
2019-03-29T17:17:18.128Z,30.75
2019-03-29T17:19:49.112Z,30.17
2019-03-29T17:22:20.089Z,32.07
2019-03-29T17:24:56.910Z,30.77
2019-03-29T17:27:23.602Z,28.43
2019-03-29T17:29:54.553Z,32.20
2019-03-29T17:32:25.858Z,32.17
2019-03-29T17:34:56.732Z,32.03
2019-03-29T17:37:27.676Z,33.80
2019-03-29T17:39:58.668Z,31.70
2019-03-29T17:42:29.717Z,31.10
2019-03-29T17:45:00.693Z,31.60
2019-03-29T17:47:31.635Z,31.13
2019-03-29T17:50:02.782Z,31.40
2019-03-29T17:52:33.870Z,30.33
2019-03-29T17:55:04.969Z,31.03
2019-03-29T17:57:35.927Z,33.37
2019-03-29T18:00:09.189Z,31.73
2019-03-29T18:02:40.139Z,31.40
2019-03-29T18:05:11.272Z,30.37
2019-03-29T18:07:42.221Z,30.87
2019-03-29T18:10:13.416Z,29.70
2019-03-29T18:12:44.399Z,32.10
2019-03-29T18:15:15.948Z,31.70
2019-03-29T18:17:47.321Z,30.00
2019-03-29T18:20:19.319Z,30.70
2019-03-29T18:22:50.312Z,31.10
2019-03-29T18:25:21.242Z,31.63
2019-03-29T18:27:52.282Z,31.20
2019-03-29T18:30:39.820Z,33.50
2019-03-29T18:33:12.080Z,32.67
2019-03-29T18:35:43.121Z,30.30
2019-03-29T18:38:14.056Z,29.97
2019-03-29T18:40:45.078Z,30.50
2019-03-29T18:43:16.114Z,34.37
2019-03-29T18:45:47.117Z,34.27
2019-03-29T18:48:18.125Z,33.03
2019-03-29T18:50:49.072Z,33.47
2019-03-29T18:53:20.074Z,33.73
2019-03-29T18:55:50.977Z,32.87
2019-03-29T18:58:21.933Z,32.97
2019-03-29T19:00:52.818Z,31.53
2019-03-29T19:03:23.757Z,31.50
2019-03-29T19:05:54.769Z,33.63
2019-03-29T19:08:25.634Z,33.23
2019-03-29T19:10:56.633Z,36.27
2019-03-29T19:13:27.515Z,35.43
2019-03-29T19:15:58.537Z,36.27
2019-03-29T19:18:30.325Z,34.77
2019-03-29T19:21:01.326Z,38.77
2019-03-29T19:23:32.293Z,35.23
2019-03-29T19:26:03.451Z,37.30
2019-03-29T19:28:34.458Z,37.37
2019-03-29T19:31:05.416Z,35.80
2019-03-29T19:33:36.362Z,33.80
2019-03-29T19:36:07.292Z,35.90
2019-03-29T19:38:38.233Z,33.60
2019-03-29T19:41:09.253Z,36.03
2019-03-29T19:43:40.151Z,36.63
2019-03-29T19:46:11.055Z,35.37
2019-03-29T19:48:41.990Z,35.27
2019-03-29T19:51:12.929Z,37.43
2019-03-29T19:53:44.039Z,37.60
2019-03-29T19:56:15.000Z,38.20
2019-03-29T19:58:45.991Z,37.50
2019-03-29T20:01:16.942Z,40.20
2019-03-29T20:03:47.850Z,37.90
2019-03-29T20:06:18.865Z,37.93
2019-03-29T20:08:49.831Z,39.00
2019-03-29T20:11:20.759Z,40.37
2019-03-29T20:13:51.753Z,39.83
2019-03-29T20:16:22.697Z,39.90
2019-03-29T20:18:54.908Z,38.30
2019-03-29T20:21:25.832Z,40.23
2019-03-29T20:23:56.772Z,44.67
2019-03-29T20:26:27.722Z,46.23
2019-03-29T20:28:58.548Z,44.67
2019-03-29T20:31:29.664Z,47.90
2019-03-29T20:34:00.583Z,47.30
2019-03-29T20:36:31.688Z,46.00
2019-03-29T20:39:02.793Z,46.03
2019-03-29T20:41:33.767Z,48.27
2019-03-29T20:44:04.809Z,47.17
2019-03-29T20:46:35.769Z,47.27
2019-03-29T20:49:06.687Z,51.13
2019-03-29T20:51:37.684Z,48.60
2019-03-29T20:54:08.567Z,49.27
2019-03-29T20:56:39.569Z,48.67
2019-03-29T20:59:10.445Z,49.03
2019-03-29T21:01:41.445Z,47.33
2019-03-29T21:04:12.320Z,50.77
2019-03-29T21:06:43.258Z,49.20
2019-03-29T21:09:14.301Z,51.30
2019-03-29T21:11:45.310Z,49.07
2019-03-29T21:14:16.207Z,52.40
2019-03-29T21:16:48.552Z,49.33
2019-03-29T21:19:19.580Z,52.47
2019-03-29T21:21:50.531Z,47.63
2019-03-29T21:24:21.523Z,50.47
2019-03-29T21:26:52.408Z,49.63
2019-03-29T21:29:23.350Z,47.07
2019-03-29T21:31:54.276Z,45.40
2019-03-29T21:34:25.113Z,49.53
2019-03-29T21:36:56.128Z,53.13
2019-03-29T21:39:27.001Z,52.77
2019-03-29T21:41:57.929Z,50.93
2019-03-29T21:44:30.301Z,46.87
2019-03-29T21:47:01.241Z,48.13
2019-03-29T21:49:32.343Z,52.70
2019-03-29T21:52:03.221Z,50.47
2019-03-29T21:54:34.160Z,47.27
2019-03-29T21:57:05.137Z,49.87
2019-03-29T21:59:36.074Z,46.50
2019-03-29T22:02:07.147Z,45.73
2019-03-29T22:04:39.052Z,48.47
2019-03-29T22:07:10.053Z,50.73
2019-03-29T22:09:40.924Z,53.37
2019-03-29T22:12:11.878Z,48.67
2019-03-29T22:14:42.800Z,51.40
2019-03-29T22:17:13.818Z,49.37
2019-03-29T22:19:44.851Z,50.70
2019-03-29T22:22:15.861Z,54.37
2019-03-29T22:24:46.656Z,54.57
2019-03-29T22:27:17.672Z,51.63
2019-03-29T22:29:48.946Z,52.13
2019-03-29T22:32:19.893Z,51.93
2019-03-29T22:34:50.888Z,57.27
2019-03-29T22:37:23.266Z,56.37
2019-03-29T22:39:56.080Z,54.10
2019-03-29T22:42:27.027Z,53.07
2019-03-29T22:44:58.028Z,54.03
2019-03-29T22:47:28.893Z,51.60
2019-03-29T22:50:00.053Z,50.93
2019-03-29T22:52:31.153Z,51.40
2019-03-29T22:55:02.072Z,53.43
2019-03-29T22:57:32.988Z,55.23
2019-03-29T23:00:04.058Z,51.53
2019-03-29T23:02:35.113Z,51.27
2019-03-29T23:05:06.201Z,53.20
2019-03-29T23:07:37.126Z,51.70
2019-03-29T23:10:08.176Z,52.53
2019-03-29T23:12:39.188Z,54.07
2019-03-29T23:15:10.459Z,54.43
2019-03-29T23:17:41.508Z,54.03
2019-03-29T23:20:13.060Z,52.77
2019-03-29T23:22:44.089Z,55.43
2019-03-29T23:25:15.250Z,53.20
2019-03-29T23:27:46.185Z,57.53
2019-03-29T23:30:17.698Z,58.03
2019-03-29T23:32:48.664Z,57.17
2019-03-29T23:35:19.607Z,54.97
2019-03-29T23:37:50.549Z,56.97
2019-03-29T23:40:21.489Z,57.27
2019-03-29T23:42:52.496Z,53.77
2019-03-29T23:45:23.361Z,52.37
2019-03-29T23:47:54.312Z,57.43
2019-03-29T23:50:25.241Z,55.17
2019-03-29T23:52:56.177Z,56.10
2019-03-29T23:55:27.186Z,55.20
2019-03-29T23:57:58.167Z,57.60
